sensor_id;sensor_type;location;lat;lon;timestamp;temperature;humidity
24103;DHT22;12278;53.058;9.028;2022-11-12T00:02:36;6.30;99.90
24103;DHT22;12278;53.058;9.028;2022-11-12T00:06:36;6.20;99.90
24103;DHT22;12278;53.058;9.028;2022-11-12T00:10:37;6.20;99.90
24103;DHT22;12278;53.058;9.028;2022-11-12T00:14:38;6.20;99.90
24103;DHT22;12278;53.058;9.028;2022-11-12T00:18:38;6.20;99.90
24103;DHT22;12278;53.058;9.028;2022-11-12T00:22:39;6.10;99.90
24103;DHT22;12278;53.058;9.028;2022-11-12T00:26:39;6.00;99.90
24103;DHT22;12278;53.058;9.028;2022-11-12T00:30:43;6.00;99.90
24103;DHT22;12278;53.058;9.028;2022-11-12T00:34:46;5.80;99.90
24103;DHT22;12278;53.058;9.028;2022-11-12T00:38:47;5.70;99.90
24103;DHT22;12278;53.058;9.028;2022-11-12T00:42:49;5.70;99.90
24103;DHT22;12278;53.058;9.028;2022-11-12T00:46:49;5.60;99.90
24103;DHT22;12278;53.058;9.028;2022-11-12T00:50:50;5.60;99.90
24103;DHT22;12278;53.058;9.028;2022-11-12T00:54:50;5.60;99.90
24103;DHT22;12278;53.058;9.028;2022-11-12T00:58:51;5.60;99.90
24103;DHT22;12278;53.058;9.028;2022-11-12T01:02:51;5.50;99.90
24103;DHT22;12278;53.058;9.028;2022-11-12T01:06:52;5.40;99.90
24103;DHT22;12278;53.058;9.028;2022-11-12T01:10:52;5.40;99.90
24103;DHT22;12278;53.058;9.028;2022-11-12T01:14:53;5.30;99.90
24103;DHT22;12278;53.058;9.028;2022-11-12T01:18:54;5.30;99.90
24103;DHT22;12278;53.058;9.028;2022-11-12T01:22:55;5.30;99.90
24103;DHT22;12278;53.058;9.028;2022-11-12T01:26:56;5.30;99.90
24103;DHT22;12278;53.058;9.028;2022-11-12T01:30:56;5.30;99.90
24103;DHT22;12278;53.058;9.028;2022-11-12T01:34:57;5.20;99.90
24103;DHT22;12278;53.058;9.028;2022-11-12T01:38:57;5.10;99.90
24103;DHT22;12278;53.058;9.028;2022-11-12T01:42:58;5.00;99.90
24103;DHT22;12278;53.058;9.028;2022-11-12T01:47:09;4.90;99.90
24103;DHT22;12278;53.058;9.028;2022-11-12T01:51:10;5.00;99.90
24103;DHT22;12278;53.058;9.028;2022-11-12T01:55:15;4.80;99.90
24103;DHT22;12278;53.058;9.028;2022-11-12T01:59:25;4.80;99.90
24103;DHT22;12278;53.058;9.028;2022-11-12T02:03:26;4.90;99.90
24103;DHT22;12278;53.058;9.028;2022-11-12T02:07:27;4.90;99.90
24103;DHT22;12278;53.058;9.028;2022-11-12T02:11:28;4.90;99.90
24103;DHT22;12278;53.058;9.028;2022-11-12T02:15:29;4.90;99.90
24103;DHT22;12278;53.058;9.028;2022-11-12T02:19:29;4.90;99.90
24103;DHT22;12278;53.058;9.028;2022-11-12T02:23:30;4.80;99.90
24103;DHT22;12278;53.058;9.028;2022-11-12T02:27:32;4.90;99.90
24103;DHT22;12278;53.058;9.028;2022-11-12T02:31:33;4.90;99.90
24103;DHT22;12278;53.058;9.028;2022-11-12T02:35:34;4.80;99.90
24103;DHT22;12278;53.058;9.028;2022-11-12T02:39:37;4.90;99.90
24103;DHT22;12278;53.058;9.028;2022-11-12T02:43:37;4.80;99.90
24103;DHT22;12278;53.058;9.028;2022-11-12T02:47:38;4.80;99.90
24103;DHT22;12278;53.058;9.028;2022-11-12T02:51:38;4.80;99.90
24103;DHT22;12278;53.058;9.028;2022-11-12T02:55:39;4.70;99.90
24103;DHT22;12278;53.058;9.028;2022-11-12T02:59:39;4.60;99.90
24103;DHT22;12278;53.058;9.028;2022-11-12T03:03:43;4.70;99.90
24103;DHT22;12278;53.058;9.028;2022-11-12T03:07:43;4.60;99.90
24103;DHT22;12278;53.058;9.028;2022-11-12T03:11:44;4.60;99.90
24103;DHT22;12278;53.058;9.028;2022-11-12T03:15:44;4.60;99.90
24103;DHT22;12278;53.058;9.028;2022-11-12T03:19:46;4.50;99.90
24103;DHT22;12278;53.058;9.028;2022-11-12T03:23:46;4.60;99.90
24103;DHT22;12278;53.058;9.028;2022-11-12T03:27:47;4.70;99.90
24103;DHT22;12278;53.058;9.028;2022-11-12T03:31:47;4.60;99.90
24103;DHT22;12278;53.058;9.028;2022-11-12T03:35:48;4.50;99.90
24103;DHT22;12278;53.058;9.028;2022-11-12T03:39:48;4.50;99.90
24103;DHT22;12278;53.058;9.028;2022-11-12T03:43:49;4.40;99.90
24103;DHT22;12278;53.058;9.028;2022-11-12T03:47:50;4.50;99.90
24103;DHT22;12278;53.058;9.028;2022-11-12T03:51:51;4.40;99.90
24103;DHT22;12278;53.058;9.028;2022-11-12T03:55:51;4.40;99.90
24103;DHT22;12278;53.058;9.028;2022-11-12T03:59:52;4.30;99.90
24103;DHT22;12278;53.058;9.028;2022-11-12T04:03:52;4.30;99.90
24103;DHT22;12278;53.058;9.028;2022-11-12T04:08:16;4.40;99.90
24103;DHT22;12278;53.058;9.028;2022-11-12T04:12:35;4.60;99.90
24103;DHT22;12278;53.058;9.028;2022-11-12T04:16:54;4.40;99.90
24103;DHT22;12278;53.058;9.028;2022-11-12T04:21:13;4.40;99.90
24103;DHT22;12278;53.058;9.028;2022-11-12T04:25:33;4.40;99.90
24103;DHT22;12278;53.058;9.028;2022-11-12T04:29:52;4.40;99.90
24103;DHT22;12278;53.058;9.028;2022-11-12T04:34:11;4.20;99.90
24103;DHT22;12278;53.058;9.028;2022-11-12T04:38:30;4.00;99.90
24103;DHT22;12278;53.058;9.028;2022-11-12T04:42:31;4.00;99.90
24103;DHT22;12278;53.058;9.028;2022-11-12T04:46:50;4.10;99.90
24103;DHT22;12278;53.058;9.028;2022-11-12T04:50:57;4.00;99.90
24103;DHT22;12278;53.058;9.028;2022-11-12T04:54:58;4.00;99.90
24103;DHT22;12278;53.058;9.028;2022-11-12T04:58:59;4.10;99.90
24103;DHT22;12278;53.058;9.028;2022-11-12T05:02:59;3.90;99.90
24103;DHT22;12278;53.058;9.028;2022-11-12T05:07:00;4.00;99.90
24103;DHT22;12278;53.058;9.028;2022-11-12T05:11:01;3.80;99.90
24103;DHT22;12278;53.058;9.028;2022-11-12T05:15:02;3.90;99.90
24103;DHT22;12278;53.058;9.028;2022-11-12T05:19:03;3.80;99.90
24103;DHT22;12278;53.058;9.028;2022-11-12T05:23:03;3.60;99.90
24103;DHT22;12278;53.058;9.028;2022-11-12T05:27:05;3.60;99.90
24103;DHT22;12278;53.058;9.028;2022-11-12T05:31:06;3.60;99.90
24103;DHT22;12278;53.058;9.028;2022-11-12T05:35:06;3.60;99.90
24103;DHT22;12278;53.058;9.028;2022-11-12T05:39:07;3.40;99.90
24103;DHT22;12278;53.058;9.028;2022-11-12T05:43:08;3.50;99.90
24103;DHT22;12278;53.058;9.028;2022-11-12T05:47:09;3.60;99.90
24103;DHT22;12278;53.058;9.028;2022-11-12T05:51:10;3.60;99.90
24103;DHT22;12278;53.058;9.028;2022-11-12T05:55:12;3.50;99.90
24103;DHT22;12278;53.058;9.028;2022-11-12T05:59:13;3.50;99.90
24103;DHT22;12278;53.058;9.028;2022-11-12T06:03:14;3.50;99.90
24103;DHT22;12278;53.058;9.028;2022-11-12T06:07:15;3.60;99.90
24103;DHT22;12278;53.058;9.028;2022-11-12T06:11:16;3.60;99.90
24103;DHT22;12278;53.058;9.028;2022-11-12T06:15:17;3.50;99.90
24103;DHT22;12278;53.058;9.028;2022-11-12T06:19:17;3.40;99.90
24103;DHT22;12278;53.058;9.028;2022-11-12T06:23:18;3.40;99.90
24103;DHT22;12278;53.058;9.028;2022-11-12T06:27:18;3.40;99.90
24103;DHT22;12278;53.058;9.028;2022-11-12T06:31:19;3.30;99.90
24103;DHT22;12278;53.058;9.028;2022-11-12T06:35:20;3.30;99.90
24103;DHT22;12278;53.058;9.028;2022-11-12T06:39:21;3.30;99.90
24103;DHT22;12278;53.058;9.028;2022-11-12T06:43:26;3.20;99.90
24103;DHT22;12278;53.058;9.028;2022-11-12T06:47:27;3.20;99.90
24103;DHT22;12278;53.058;9.028;2022-11-12T06:51:31;3.40;99.90
24103;DHT22;12278;53.058;9.028;2022-11-12T06:55:33;3.30;99.90
24103;DHT22;12278;53.058;9.028;2022-11-12T06:59:34;3.30;99.90
24103;DHT22;12278;53.058;9.028;2022-11-12T07:03:35;3.50;99.90
24103;DHT22;12278;53.058;9.028;2022-11-12T07:07:36;3.50;99.90
24103;DHT22;12278;53.058;9.028;2022-11-12T07:11:38;3.60;99.90
24103;DHT22;12278;53.058;9.028;2022-11-12T07:15:39;3.50;99.90
24103;DHT22;12278;53.058;9.028;2022-11-12T07:19:47;3.50;99.90
24103;DHT22;12278;53.058;9.028;2022-11-12T07:23:49;3.70;99.90
24103;DHT22;12278;53.058;9.028;2022-11-12T07:27:52;3.80;99.90
24103;DHT22;12278;53.058;9.028;2022-11-12T07:31:52;4.00;99.90
24103;DHT22;12278;53.058;9.028;2022-11-12T07:35:56;4.10;99.90
24103;DHT22;12278;53.058;9.028;2022-11-12T07:39:57;4.30;99.90
24103;DHT22;12278;53.058;9.028;2022-11-12T07:43:59;4.50;99.90
24103;DHT22;12278;53.058;9.028;2022-11-12T07:48:01;4.70;99.90
24103;DHT22;12278;53.058;9.028;2022-11-12T07:52:02;4.70;99.90
24103;DHT22;12278;53.058;9.028;2022-11-12T07:56:06;4.90;99.90
24103;DHT22;12278;53.058;9.028;2022-11-12T08:00:07;5.50;99.90
24103;DHT22;12278;53.058;9.028;2022-11-12T08:04:08;5.70;99.90
24103;DHT22;12278;53.058;9.028;2022-11-12T08:08:09;5.70;99.90
24103;DHT22;12278;53.058;9.028;2022-11-12T08:12:10;5.60;99.90
24103;DHT22;12278;53.058;9.028;2022-11-12T08:16:10;5.60;99.90
24103;DHT22;12278;53.058;9.028;2022-11-12T08:20:12;5.70;99.90
24103;DHT22;12278;53.058;9.028;2022-11-12T08:24:13;5.90;99.90
24103;DHT22;12278;53.058;9.028;2022-11-12T08:28:13;6.00;99.90
24103;DHT22;12278;53.058;9.028;2022-11-12T08:32:14;6.60;99.90
24103;DHT22;12278;53.058;9.028;2022-11-12T08:36:15;8.90;99.90
24103;DHT22;12278;53.058;9.028;2022-11-12T08:40:17;10.50;99.90
24103;DHT22;12278;53.058;9.028;2022-11-12T08:44:17;11.20;99.90
24103;DHT22;12278;53.058;9.028;2022-11-12T08:48:18;12.20;99.90
24103;DHT22;12278;53.058;9.028;2022-11-12T08:52:18;11.80;99.90
24103;DHT22;12278;53.058;9.028;2022-11-12T08:56:19;12.20;99.90
24103;DHT22;12278;53.058;9.028;2022-11-12T09:00:20;12.80;99.90
24103;DHT22;12278;53.058;9.028;2022-11-12T09:04:21;13.20;99.90
24103;DHT22;12278;53.058;9.028;2022-11-12T09:08:23;12.50;99.90
24103;DHT22;12278;53.058;9.028;2022-11-12T09:12:24;12.10;99.90
24103;DHT22;12278;53.058;9.028;2022-11-12T09:16:24;12.50;99.90
24103;DHT22;12278;53.058;9.028;2022-11-12T09:20:25;13.00;99.90
24103;DHT22;12278;53.058;9.028;2022-11-12T09:24:25;13.10;99.90
24103;DHT22;12278;53.058;9.028;2022-11-12T09:28:27;13.40;99.90
24103;DHT22;12278;53.058;9.028;2022-11-12T09:32:27;13.20;99.90
24103;DHT22;12278;53.058;9.028;2022-11-12T09:36:28;13.30;99.90
24103;DHT22;12278;53.058;9.028;2022-11-12T09:45:00;13.00;99.90
24103;DHT22;12278;53.058;9.028;2022-11-12T09:49:13;12.30;99.90
24103;DHT22;12278;53.058;9.028;2022-11-12T09:53:16;12.30;99.90
24103;DHT22;12278;53.058;9.028;2022-11-12T09:57:17;12.70;99.90
24103;DHT22;12278;53.058;9.028;2022-11-12T10:01:22;14.40;99.90
24103;DHT22;12278;53.058;9.028;2022-11-12T10:09:29;14.90;99.90
24103;DHT22;12278;53.058;9.028;2022-11-12T10:17:43;14.80;99.90
24103;DHT22;12278;53.058;9.028;2022-11-12T10:26:00;14.50;99.90
24103;DHT22;12278;53.058;9.028;2022-11-12T10:30:18;15.50;99.90
24103;DHT22;12278;53.058;9.028;2022-11-12T10:34:19;15.60;99.90
24103;DHT22;12278;53.058;9.028;2022-11-12T10:38:22;15.10;99.90
24103;DHT22;12278;53.058;9.028;2022-11-12T10:42:24;15.70;99.90
24103;DHT22;12278;53.058;9.028;2022-11-12T10:58:26;12.70;99.90
24103;DHT22;12278;53.058;9.028;2022-11-12T11:02:27;12.30;99.90
24103;DHT22;12278;53.058;9.028;2022-11-12T11:06:28;12.10;99.90
24103;DHT22;12278;53.058;9.028;2022-11-12T11:10:35;11.90;99.90
24103;DHT22;12278;53.058;9.028;2022-11-12T11:14:35;11.80;99.90
24103;DHT22;12278;53.058;9.028;2022-11-12T11:18:37;11.50;99.90
24103;DHT22;12278;53.058;9.028;2022-11-12T11:22:48;11.60;99.90
24103;DHT22;12278;53.058;9.028;2022-11-12T11:27:03;11.80;99.90
24103;DHT22;12278;53.058;9.028;2022-11-12T11:39:25;12.30;99.90
24103;DHT22;12278;53.058;9.028;2022-11-12T11:47:50;13.20;99.90
24103;DHT22;12278;53.058;9.028;2022-11-12T11:52:06;13.50;99.90
24103;DHT22;12278;53.058;9.028;2022-11-12T11:56:18;13.40;99.90
24103;DHT22;12278;53.058;9.028;2022-11-12T12:00:22;13.10;99.90
24103;DHT22;12278;53.058;9.028;2022-11-12T12:12:32;13.10;99.90
24103;DHT22;12278;53.058;9.028;2022-11-12T12:16:55;13.00;99.90
24103;DHT22;12278;53.058;9.028;2022-11-12T12:21:02;12.90;99.90
24103;DHT22;12278;53.058;9.028;2022-11-12T12:25:10;12.80;99.90
24103;DHT22;12278;53.058;9.028;2022-11-12T12:37:33;12.70;99.90
24103;DHT22;12278;53.058;9.028;2022-11-12T12:45:44;12.90;99.90
24103;DHT22;12278;53.058;9.028;2022-11-12T12:49:45;13.20;99.90
24103;DHT22;12278;53.058;9.028;2022-11-12T12:53:47;13.30;99.90
24103;DHT22;12278;53.058;9.028;2022-11-12T12:57:48;13.10;99.90
24103;DHT22;12278;53.058;9.028;2022-11-12T13:02:00;13.20;99.90
24103;DHT22;12278;53.058;9.028;2022-11-12T13:06:06;13.40;99.90
24103;DHT22;12278;53.058;9.028;2022-11-12T13:10:52;13.50;99.90
24103;DHT22;12278;53.058;9.028;2022-11-12T13:26:43;13.70;99.90
24103;DHT22;12278;53.058;9.028;2022-11-12T13:34:45;13.80;99.90
24103;DHT22;12278;53.058;9.028;2022-11-12T13:38:45;13.70;99.90
24103;DHT22;12278;53.058;9.028;2022-11-12T13:42:46;14.00;99.90
24103;DHT22;12278;53.058;9.028;2022-11-12T13:46:49;14.10;99.90
24103;DHT22;12278;53.058;9.028;2022-11-12T13:50:52;13.80;99.90
24103;DHT22;12278;53.058;9.028;2022-11-12T13:55:08;13.60;99.90
24103;DHT22;12278;53.058;9.028;2022-11-12T13:59:15;13.90;99.90
24103;DHT22;12278;53.058;9.028;2022-11-12T14:03:16;14.30;99.90
24103;DHT22;12278;53.058;9.028;2022-11-12T14:16:26;16.20;99.90
24103;DHT22;12278;53.058;9.028;2022-11-12T14:20:33;15.90;99.90
24103;DHT22;12278;53.058;9.028;2022-11-12T14:24:39;15.80;99.90
24103;DHT22;12278;53.058;9.028;2022-11-12T14:28:40;16.70;99.90
24103;DHT22;12278;53.058;9.028;2022-11-12T14:32:41;18.20;99.90
24103;DHT22;12278;53.058;9.028;2022-11-12T14:36:42;16.80;99.90
24103;DHT22;12278;53.058;9.028;2022-11-12T14:40:53;15.90;99.90
24103;DHT22;12278;53.058;9.028;2022-11-12T14:44:54;15.20;99.90
24103;DHT22;12278;53.058;9.028;2022-11-12T14:48:59;13.80;99.90
24103;DHT22;12278;53.058;9.028;2022-11-12T14:53:01;13.20;99.90
24103;DHT22;12278;53.058;9.028;2022-11-12T14:57:04;12.60;99.90
24103;DHT22;12278;53.058;9.028;2022-11-12T15:01:18;12.20;99.90
24103;DHT22;12278;53.058;9.028;2022-11-12T15:05:19;11.80;99.90
24103;DHT22;12278;53.058;9.028;2022-11-12T15:09:35;11.60;99.90
24103;DHT22;12278;53.058;9.028;2022-11-12T15:13:38;11.30;99.90
24103;DHT22;12278;53.058;9.028;2022-11-12T15:17:39;11.00;99.90
24103;DHT22;12278;53.058;9.028;2022-11-12T15:21:44;10.60;99.90
24103;DHT22;12278;53.058;9.028;2022-11-12T15:25:44;10.40;99.90
24103;DHT22;12278;53.058;9.028;2022-11-12T15:29:45;10.30;99.90
24103;DHT22;12278;53.058;9.028;2022-11-12T15:33:45;10.30;99.90
24103;DHT22;12278;53.058;9.028;2022-11-12T15:37:46;10.10;99.90
24103;DHT22;12278;53.058;9.028;2022-11-12T15:41:47;10.00;99.90
24103;DHT22;12278;53.058;9.028;2022-11-12T15:45:48;9.90;99.90
24103;DHT22;12278;53.058;9.028;2022-11-12T15:49:49;9.80;99.90
24103;DHT22;12278;53.058;9.028;2022-11-12T15:53:50;9.50;99.90
24103;DHT22;12278;53.058;9.028;2022-11-12T15:57:51;9.50;99.90
24103;DHT22;12278;53.058;9.028;2022-11-12T16:01:52;9.30;99.90
24103;DHT22;12278;53.058;9.028;2022-11-12T16:05:53;9.30;99.90
24103;DHT22;12278;53.058;9.028;2022-11-12T16:09:53;9.10;99.90
24103;DHT22;12278;53.058;9.028;2022-11-12T16:13:54;9.10;99.90
24103;DHT22;12278;53.058;9.028;2022-11-12T16:17:54;9.00;99.90
24103;DHT22;12278;53.058;9.028;2022-11-12T16:21:55;8.90;99.90
24103;DHT22;12278;53.058;9.028;2022-11-12T16:25:55;8.70;99.90
24103;DHT22;12278;53.058;9.028;2022-11-12T16:29:56;8.60;99.90
24103;DHT22;12278;53.058;9.028;2022-11-12T16:33:56;8.60;99.90
24103;DHT22;12278;53.058;9.028;2022-11-12T16:37:57;8.40;99.90
24103;DHT22;12278;53.058;9.028;2022-11-12T16:41:57;8.30;99.90
24103;DHT22;12278;53.058;9.028;2022-11-12T16:45:58;8.10;99.90
24103;DHT22;12278;53.058;9.028;2022-11-12T16:49:59;8.10;99.90
24103;DHT22;12278;53.058;9.028;2022-11-12T16:53:59;8.10;99.90
24103;DHT22;12278;53.058;9.028;2022-11-12T16:58:00;8.10;99.90
24103;DHT22;12278;53.058;9.028;2022-11-12T17:02:00;8.10;99.90
24103;DHT22;12278;53.058;9.028;2022-11-12T17:06:01;8.10;99.90
24103;DHT22;12278;53.058;9.028;2022-11-12T17:10:02;8.00;99.90
24103;DHT22;12278;53.058;9.028;2022-11-12T17:14:05;7.90;99.90
24103;DHT22;12278;53.058;9.028;2022-11-12T17:18:05;7.90;99.90
24103;DHT22;12278;53.058;9.028;2022-11-12T17:22:07;7.80;99.90
24103;DHT22;12278;53.058;9.028;2022-11-12T17:26:11;7.70;99.90
24103;DHT22;12278;53.058;9.028;2022-11-12T17:30:12;7.70;99.90
24103;DHT22;12278;53.058;9.028;2022-11-12T17:34:13;7.70;99.90
24103;DHT22;12278;53.058;9.028;2022-11-12T17:38:14;7.60;99.90
24103;DHT22;12278;53.058;9.028;2022-11-12T17:42:14;7.40;99.90
24103;DHT22;12278;53.058;9.028;2022-11-12T17:46:15;7.50;99.90
24103;DHT22;12278;53.058;9.028;2022-11-12T17:50:15;7.40;99.90
24103;DHT22;12278;53.058;9.028;2022-11-12T17:54:16;7.40;99.90
24103;DHT22;12278;53.058;9.028;2022-11-12T17:58:16;7.30;99.90
24103;DHT22;12278;53.058;9.028;2022-11-12T18:02:17;7.20;99.90
24103;DHT22;12278;53.058;9.028;2022-11-12T18:10:30;7.00;99.90
24103;DHT22;12278;53.058;9.028;2022-11-12T18:14:30;7.10;99.90
24103;DHT22;12278;53.058;9.028;2022-11-12T18:22:35;7.00;99.90
24103;DHT22;12278;53.058;9.028;2022-11-12T18:26:37;7.00;99.90
24103;DHT22;12278;53.058;9.028;2022-11-12T18:30:38;6.90;99.90
24103;DHT22;12278;53.058;9.028;2022-11-12T18:34:38;6.80;99.90
24103;DHT22;12278;53.058;9.028;2022-11-12T18:42:53;6.70;99.90
24103;DHT22;12278;53.058;9.028;2022-11-12T18:46:54;6.70;99.90
24103;DHT22;12278;53.058;9.028;2022-11-12T18:50:58;6.70;99.90
24103;DHT22;12278;53.058;9.028;2022-11-12T18:54:59;6.70;99.90
24103;DHT22;12278;53.058;9.028;2022-11-12T18:58:59;6.70;99.90
24103;DHT22;12278;53.058;9.028;2022-11-12T19:03:01;6.70;99.90
24103;DHT22;12278;53.058;9.028;2022-11-12T19:07:01;6.70;99.90
24103;DHT22;12278;53.058;9.028;2022-11-12T19:11:03;6.60;99.90
24103;DHT22;12278;53.058;9.028;2022-11-12T19:15:04;6.60;99.90
24103;DHT22;12278;53.058;9.028;2022-11-12T19:19:07;6.60;99.90
24103;DHT22;12278;53.058;9.028;2022-11-12T19:23:08;6.50;99.90
24103;DHT22;12278;53.058;9.028;2022-11-12T19:27:13;6.50;99.90
24103;DHT22;12278;53.058;9.028;2022-11-12T19:31:16;6.60;99.90
24103;DHT22;12278;53.058;9.028;2022-11-12T19:35:16;6.50;99.90
24103;DHT22;12278;53.058;9.028;2022-11-12T19:39:17;6.40;99.90
24103;DHT22;12278;53.058;9.028;2022-11-12T19:43:17;6.40;99.90
24103;DHT22;12278;53.058;9.028;2022-11-12T19:47:19;6.30;99.90
24103;DHT22;12278;53.058;9.028;2022-11-12T19:51:19;6.30;99.90
24103;DHT22;12278;53.058;9.028;2022-11-12T19:55:20;6.20;99.90
24103;DHT22;12278;53.058;9.028;2022-11-12T19:59:20;6.20;99.90
24103;DHT22;12278;53.058;9.028;2022-11-12T20:03:21;6.20;99.90
24103;DHT22;12278;53.058;9.028;2022-11-12T20:07:24;6.10;99.90
24103;DHT22;12278;53.058;9.028;2022-11-12T20:11:24;6.10;99.90
24103;DHT22;12278;53.058;9.028;2022-11-12T20:15:25;6.10;99.90
24103;DHT22;12278;53.058;9.028;2022-11-12T20:19:25;6.10;99.90
24103;DHT22;12278;53.058;9.028;2022-11-12T20:23:27;6.10;99.90
24103;DHT22;12278;53.058;9.028;2022-11-12T20:27:27;6.10;99.90
24103;DHT22;12278;53.058;9.028;2022-11-12T20:31:28;6.00;99.90
24103;DHT22;12278;53.058;9.028;2022-11-12T20:35:28;6.00;99.90
24103;DHT22;12278;53.058;9.028;2022-11-12T20:39:29;6.00;99.90
24103;DHT22;12278;53.058;9.028;2022-11-12T20:43:29;5.90;99.90
24103;DHT22;12278;53.058;9.028;2022-11-12T20:47:30;5.80;99.90
24103;DHT22;12278;53.058;9.028;2022-11-12T20:51:31;5.80;99.90
24103;DHT22;12278;53.058;9.028;2022-11-12T20:55:32;5.70;99.90
24103;DHT22;12278;53.058;9.028;2022-11-12T20:59:33;5.80;99.90
24103;DHT22;12278;53.058;9.028;2022-11-12T21:03:41;5.70;99.90
24103;DHT22;12278;53.058;9.028;2022-11-12T21:07:43;5.70;99.90
24103;DHT22;12278;53.058;9.028;2022-11-12T21:11:43;5.60;99.90
24103;DHT22;12278;53.058;9.028;2022-11-12T21:15:45;5.70;99.90
24103;DHT22;12278;53.058;9.028;2022-11-12T21:19:45;5.70;99.90
24103;DHT22;12278;53.058;9.028;2022-11-12T21:23:46;5.60;99.90
24103;DHT22;12278;53.058;9.028;2022-11-12T21:27:50;5.50;99.90
24103;DHT22;12278;53.058;9.028;2022-11-12T21:31:50;5.60;99.90
24103;DHT22;12278;53.058;9.028;2022-11-12T21:36:01;5.60;99.90
24103;DHT22;12278;53.058;9.028;2022-11-12T21:40:03;5.60;99.90
24103;DHT22;12278;53.058;9.028;2022-11-12T21:44:03;5.60;99.90
24103;DHT22;12278;53.058;9.028;2022-11-12T21:48:04;5.50;99.90
24103;DHT22;12278;53.058;9.028;2022-11-12T21:52:04;5.60;99.90
24103;DHT22;12278;53.058;9.028;2022-11-12T21:56:12;5.50;99.90
24103;DHT22;12278;53.058;9.028;2022-11-12T22:00:12;5.50;99.90
24103;DHT22;12278;53.058;9.028;2022-11-12T22:08:19;5.40;99.90
24103;DHT22;12278;53.058;9.028;2022-11-12T22:12:19;5.40;99.90
24103;DHT22;12278;53.058;9.028;2022-11-12T22:16:25;5.30;99.90
24103;DHT22;12278;53.058;9.028;2022-11-12T22:20:26;5.30;99.90
24103;DHT22;12278;53.058;9.028;2022-11-12T22:24:27;5.20;99.90
24103;DHT22;12278;53.058;9.028;2022-11-12T22:28:27;5.20;99.90
24103;DHT22;12278;53.058;9.028;2022-11-12T22:32:27;5.10;99.90
24103;DHT22;12278;53.058;9.028;2022-11-12T22:36:29;5.20;99.90
24103;DHT22;12278;53.058;9.028;2022-11-12T22:40:30;5.30;99.90
24103;DHT22;12278;53.058;9.028;2022-11-12T22:44:30;5.30;99.90
24103;DHT22;12278;53.058;9.028;2022-11-12T22:48:31;5.30;99.90
24103;DHT22;12278;53.058;9.028;2022-11-12T22:56:37;5.30;99.90
24103;DHT22;12278;53.058;9.028;2022-11-12T23:00:39;5.20;99.90
24103;DHT22;12278;53.058;9.028;2022-11-12T23:04:39;5.20;99.90
24103;DHT22;12278;53.058;9.028;2022-11-12T23:08:39;5.20;99.90
24103;DHT22;12278;53.058;9.028;2022-11-12T23:12:41;5.30;99.90
24103;DHT22;12278;53.058;9.028;2022-11-12T23:16:41;5.30;99.90
24103;DHT22;12278;53.058;9.028;2022-11-12T23:20:42;5.20;99.90
24103;DHT22;12278;53.058;9.028;2022-11-12T23:24:42;5.20;99.90
24103;DHT22;12278;53.058;9.028;2022-11-12T23:28:43;5.30;99.90
24103;DHT22;12278;53.058;9.028;2022-11-12T23:36:47;5.30;99.90
24103;DHT22;12278;53.058;9.028;2022-11-12T23:40:51;5.40;99.90
24103;DHT22;12278;53.058;9.028;2022-11-12T23:44:54;5.30;99.90
24103;DHT22;12278;53.058;9.028;2022-11-12T23:48:54;5.20;99.90
24103;DHT22;12278;53.058;9.028;2022-11-12T23:52:55;5.30;99.90
24103;DHT22;12278;53.058;9.028;2022-11-12T23:56:55;5.30;99.90
